Time;durP1;ratioP1;P1;durP2;ratioP2;P2;SDS_P1;SDS_P2;PMS_P1;PMS_P2;Temp;Humidity;BMP_temperature;BMP_pressure;BME280_temperature;BME280_humidity;BME280_pressure;Samples;Min_cycle;Max_cycle;Signal;HPM_P1;HPM_P2
2022/07/29 00:02:09;;;;;;;;;;;;;;;;;;6230730;22;19915;-87
2022/07/29 00:04:36;;;;;;;;;;;;;;;;;;6233267;22;19915;-87
2022/07/29 00:07:04;;;;;;;;;;;;;;;;;;6233330;22;20354;-87
2022/07/29 00:09:31;;;;;;;;;;;;;;;;;;6235993;22;19915;-88
2022/07/29 00:12:00;;;;;;;;;;;;;;;;;;6263306;22;19915;-87
2022/07/29 00:14:27;;;;;;;;;;;;;;;;;;6262309;22;19915;-88
2022/07/29 00:16:53;;;;;;;;;;;;;;;;;;6257358;22;19925;-88
2022/07/29 00:19:19;;;;;;;;;;;;;;;;;;6253842;22;19915;-88
2022/07/29 00:21:46;;;;;;;;;;;;;;;;;;6229900;22;20018;-88
2022/07/29 00:24:12;;;;;;;;;;;;;;;;;;6228580;22;19911;-88
2022/07/29 00:26:39;;;;;;;;;;;;;;;;;;6257338;22;20289;-88
2022/07/29 00:29:06;;;;;;;;;;;;;;;;;;6255409;22;20021;-88
2022/07/29 00:31:34;;;;;;;;;;;;;;;;;;6255330;22;19914;-87
2022/07/29 00:34:03;;;;;;;;;;;;;;;;;;6253403;22;19915;-88
2022/07/29 00:36:31;;;;;;;;;;;;;;;;;;6230762;22;19915;-88
2022/07/29 00:38:57;;;;;;;;;;;;;;;;;;6229272;22;19914;-88
2022/07/29 00:41:24;;;;;;;;;;;;;;;;;;6232024;22;19915;-88
2022/07/29 00:43:51;;;;;;;;;;;;;;;;;;6205592;22;19986;-88
2022/07/29 00:46:17;;;;;;;;;;;;;;;;;;6255319;22;19915;-88
2022/07/29 00:48:44;;;;;;;;;;;;;;;;;;6230155;22;20006;-87
2022/07/29 00:51:11;;;;;;;;;;;;;;;;;;6255730;22;20366;-87
2022/07/29 00:53:38;;;;;;;;;;;;;;;;;;6254712;22;19954;-87
2022/07/29 00:56:19;;;;;;;;;;;;;;;;;;6170693;23;19924;-87
2022/07/29 00:58:46;;;;;;;;;;;;;;;;;;6168460;23;20309;-87
2022/07/29 01:01:14;;;;;;;;;;;;;;;;;;6192554;23;20300;-87
2022/07/29 01:03:44;;;;;;;;;;;;;;;;;;6168992;23;19954;-87
2022/07/29 01:06:11;;;;;;;;;;;;;;;;;;6165263;23;20277;-87
2022/07/29 01:08:38;;;;;;;;;;;;;;;;;;6194066;23;19915;-87
2022/07/29 01:11:06;;;;;;;;;;;;;;;;;;6190554;23;19964;-88
2022/07/29 01:13:33;;;;;;;;;;;;;;;;;;6168723;23;19997;-87
2022/07/29 01:16:00;;;;;;;;;;;;;;;;;;6193909;23;20014;-87
2022/07/29 01:18:42;;;;;;;;;;;;;;;;;;6174690;23;20483;-87
2022/07/29 01:21:08;;;;;;;;;;;;;;;;;;6191533;23;19955;-87
2022/07/29 01:23:35;;;;;;;;;;;;;;;;;;6194076;23;19926;-87
2022/07/29 01:26:02;;;;;;;;;;;;;;;;;;6164448;23;19920;-87
2022/07/29 01:28:30;;;;;;;;;;;;;;;;;;6170305;23;19916;-87
2022/07/29 01:30:57;;;;;;;;;;;;;;;;;;6166114;23;20006;-87
2022/07/29 01:36:09;;;;;;;;;;;;;;;;;;6189437;23;19916;-87
2022/07/29 01:38:36;;;;;;;;;;;;;;;;;;6170271;23;19927;-87
2022/07/29 01:41:03;;;;;;;;;;;;;;;;;;6171648;23;19916;-87
2022/07/29 01:43:40;;;;;;;;;;;;;;;;;;6174404;23;20073;-87
2022/07/29 01:46:07;;;;;;;;;;;;;;;;;;6169278;23;19986;-87
2022/07/29 01:48:33;;;;;;;;;;;;;;;;;;6147691;23;20155;-87
2022/07/29 01:51:20;;;;;;;;;;;;;;;;;;6176460;23;20236;-87
2022/07/29 01:53:47;;;;;;;;;;;;;;;;;;6171096;23;19916;-87
2022/07/29 01:56:14;;;;;;;;;;;;;;;;;;6170909;23;20002;-86
2022/07/29 01:58:41;;;;;;;;;;;;;;;;;;6180734;22;20315;-87
2022/07/29 02:01:09;;;;;;;;;;;;;;;;;;6257887;22;19960;-87
2022/07/29 02:03:35;;;;;;;;;;;;;;;;;;6262021;22;19986;-87
2022/07/29 02:06:03;;;;;;;;;;;;;;;;;;6259658;22;19914;-87
2022/07/29 02:08:35;;;;;;;;;;;;;;;;;;6259455;22;19922;-87
2022/07/29 02:11:02;;;;;;;;;;;;;;;;;;6228164;22;20248;-87
2022/07/29 02:13:29;;;;;;;;;;;;;;;;;;6254961;22;19919;-87
2022/07/29 02:15:57;;;;;;;;;;;;;;;;;;6254659;22;19995;-88
2022/07/29 02:18:43;;;;;;;;;;;;;;;;;;6197705;23;19943;-87
2022/07/29 02:21:10;;;;;;;;;;;;;;;;;;6197847;23;20430;-88
2022/07/29 02:23:36;;;;;;;;;;;;;;;;;;6170966;23;19915;-87
2022/07/29 02:26:08;;;;;;;;;;;;;;;;;;6194682;23;20632;-88
2022/07/29 02:28:35;;;;;;;;;;;;;;;;;;6171253;23;20042;-87
2022/07/29 02:31:04;;;;;;;;;;;;;;;;;;6221883;23;20005;-87
2022/07/29 02:33:40;;;;;;;;;;;;;;;;;;6223630;23;20241;-87
2022/07/29 02:36:12;;;;;;;;;;;;;;;;;;6174402;23;20666;-87
2022/07/29 02:38:51;;;;;;;;;;;;;;;;;;6173001;23;19915;-87
2022/07/29 02:41:32;;;;;;;;;;;;;;;;;;6196202;23;19916;-88
2022/07/29 02:43:59;;;;;;;;;;;;;;;;;;6192424;23;19911;-87
2022/07/29 02:46:26;;;;;;;;;;;;;;;;;;6194376;23;20038;-87
2022/07/29 02:48:59;;;;;;;;;;;;;;;;;;6191014;23;19925;-88
2022/07/29 02:51:26;;;;;;;;;;;;;;;;;;6195968;23;19923;-87
2022/07/29 02:53:52;;;;;;;;;;;;;;;;;;6197114;23;19983;-87
2022/07/29 02:56:34;;;;;;;;;;;;;;;;;;6115344;23;19990;-87
2022/07/29 02:59:11;;;;;;;;;;;;;;;;;;6133144;23;20531;-87
2022/07/29 03:01:37;;;;;;;;;;;;;;;;;;6137186;23;19917;-87
2022/07/29 03:04:04;;;;;;;;;;;;;;;;;;6131561;23;19924;-87
2022/07/29 03:06:30;;;;;;;;;;;;;;;;;;6134554;23;20707;-86
2022/07/29 03:08:59;;;;;;;;;;;;;;;;;;6105741;23;19916;-87
2022/07/29 03:11:29;;;;;;;;;;;;;;;;;;6136726;23;19912;-87
2022/07/29 03:13:56;;;;;;;;;;;;;;;;;;6137541;23;19998;-87
2022/07/29 03:16:24;;;;;;;;;;;;;;;;;;6140501;23;19912;-87
2022/07/29 03:18:50;;;;;;;;;;;;;;;;;;6115262;23;19926;-87
2022/07/29 03:21:19;;;;;;;;;;;;;;;;;;6164658;23;19916;-87
2022/07/29 03:23:46;;;;;;;;;;;;;;;;;;6142270;23;19935;-87
2022/07/29 03:26:12;;;;;;;;;;;;;;;;;;6160564;23;19926;-87
2022/07/29 03:28:39;;;;;;;;;;;;;;;;;;6199723;23;19990;-87
2022/07/29 03:31:05;;;;;;;;;;;;;;;;;;6224505;23;20336;-87
2022/07/29 03:33:35;;;;;;;;;;;;;;;;;;6228808;23;19927;-87
2022/07/29 03:36:17;;;;;;;;;;;;;;;;;;6223755;23;20429;-87
2022/07/29 03:38:44;;;;;;;;;;;;;;;;;;6229527;23;19946;-87
2022/07/29 03:41:10;;;;;;;;;;;;;;;;;;6204040;23;19946;-87
2022/07/29 03:43:40;;;;;;;;;;;;;;;;;;6231694;23;19963;-87
2022/07/29 03:46:07;;;;;;;;;;;;;;;;;;6228130;23;19915;-87
2022/07/29 03:48:35;;;;;;;;;;;;;;;;;;6233104;23;19912;-87
2022/07/29 03:51:02;;;;;;;;;;;;;;;;;;6230390;23;19915;-87
2022/07/29 03:53:29;;;;;;;;;;;;;;;;;;6229809;23;19920;-87
2022/07/29 03:55:56;;;;;;;;;;;;;;;;;;6203221;23;19912;-88
2022/07/29 03:58:24;;;;;;;;;;;;;;;;;;6232591;23;20348;-87
2022/07/29 04:00:51;;;;;;;;;;;;;;;;;;6203681;23;19922;-87
2022/07/29 04:03:18;;;;;;;;;;;;;;;;;;6202508;23;19916;-87
2022/07/29 04:05:46;;;;;;;;;;;;;;;;;;6231465;23;19922;-87
2022/07/29 04:08:11;;;;;;;;;;;;;;;;;;6202751;23;19911;-87
2022/07/29 04:10:45;;;;;;;;;;;;;;;;;;6231006;23;19962;-87
2022/07/29 04:13:11;;;;;;;;;;;;;;;;;;6223201;23;19919;-88
2022/07/29 04:15:38;;;;;;;;;;;;;;;;;;6225592;23;19922;-87
2022/07/29 04:18:05;;;;;;;;;;;;;;;;;;6197470;23;19926;-87
2022/07/29 04:20:33;;;;;;;;;;;;;;;;;;6228760;23;20364;-87
2022/07/29 04:23:00;;;;;;;;;;;;;;;;;;6225852;23;19981;-88
2022/07/29 04:25:27;;;;;;;;;;;;;;;;;;6202129;23;19919;-88
2022/07/29 04:28:03;;;;;;;;;;;;;;;;;;6260381;22;19926;-87
2022/07/29 04:30:30;;;;;;;;;;;;;;;;;;6237665;22;19914;-88
2022/07/29 04:32:58;;;;;;;;;;;;;;;;;;6261020;22;19915;-88
2022/07/29 04:35:25;;;;;;;;;;;;;;;;;;6263322;22;19919;-88
2022/07/29 04:37:51;;;;;;;;;;;;;;;;;;6261557;22;19922;-87
2022/07/29 04:40:27;;;;;;;;;;;;;;;;;;6263014;22;19960;-87
2022/07/29 04:43:12;;;;;;;;;;;;;;;;;;6255685;22;19980;-87
2022/07/29 04:45:43;;;;;;;;;;;;;;;;;;6259580;22;19911;-87
2022/07/29 04:48:09;;;;;;;;;;;;;;;;;;6252704;22;19921;-87
2022/07/29 04:50:35;;;;;;;;;;;;;;;;;;6254993;22;19915;-87
2022/07/29 04:53:01;;;;;;;;;;;;;;;;;;6252368;22;19919;-87
2022/07/29 04:55:27;;;;;;;;;;;;;;;;;;6256476;22;19914;-87
2022/07/29 05:00:58;;;;;;;;;;;;;;;;;;6261908;22;20045;-94
2022/07/29 05:03:25;;;;;;;;;;;;;;;;;;6231948;22;19949;-95
2022/07/29 05:05:51;;;;;;;;;;;;;;;;;;6243429;22;19919;-94
2022/07/29 05:08:20;;;;;;;;;;;;;;;;;;6261405;22;19922;-93
2022/07/29 05:10:53;;;;;;;;;;;;;;;;;;6261389;22;19926;-95
2022/07/29 05:13:30;;;;;;;;;;;;;;;;;;6260185;22;19949;-94
2022/07/29 05:15:58;;;;;;;;;;;;;;;;;;6260978;22;20331;-95
2022/07/29 05:18:39;;;;;;;;;;;;;;;;;;6263282;22;19915;-94
2022/07/29 05:21:05;;;;;;;;;;;;;;;;;;6263467;22;20301;-95
2022/07/29 05:23:31;;;;;;;;;;;;;;;;;;6265935;22;19968;-94
2022/07/29 05:25:57;;;;;;;;;;;;;;;;;;6258375;22;20404;-94
2022/07/29 05:28:37;;;;;;;;;;;;;;;;;;6264969;22;19990;-94
2022/07/29 05:39:48;;;;;;;;;;;;;;;;;;6266770;22;20342;-88
2022/07/29 05:42:19;;;;;;;;;;;;;;;;;;6321740;22;19926;-87
2022/07/29 05:44:47;;;;;;;;;;;;;;;;;;6295340;22;19930;-87
2022/07/29 05:47:17;;;;;;;;;;;;;;;;;;6291892;22;19985;-87
2022/07/29 05:49:48;;;;;;;;;;;;;;;;;;6323238;22;19914;-87
2022/07/29 05:52:14;;;;;;;;;;;;;;;;;;6293066;22;20005;-87
2022/07/29 05:54:43;;;;;;;;;;;;;;;;;;6295228;22;19960;-87
2022/07/29 05:57:10;;;;;;;;;;;;;;;;;;6321704;22;19911;-87
2022/07/29 05:59:41;;;;;;;;;;;;;;;;;;6269922;22;19921;-87
2022/07/29 06:02:07;;;;;;;;;;;;;;;;;;6292513;22;20330;-87
2022/07/29 06:04:47;;;;;;;;;;;;;;;;;;6296706;22;20341;-88
2022/07/29 06:07:13;;;;;;;;;;;;;;;;;;6320421;22;19920;-88
2022/07/29 06:09:40;;;;;;;;;;;;;;;;;;6295709;22;19989;-88
2022/07/29 06:12:06;;;;;;;;;;;;;;;;;;6288483;22;20290;-87
2022/07/29 06:14:46;;;;;;;;;;;;;;;;;;6299212;22;19960;-87
2022/07/29 06:17:11;;;;;;;;;;;;;;;;;;6320864;22;19914;-87
2022/07/29 06:19:57;;;;;;;;;;;;;;;;;;6324247;22;19929;-88
2022/07/29 06:22:23;;;;;;;;;;;;;;;;;;6322172;22;19914;-88
2022/07/29 06:24:51;;;;;;;;;;;;;;;;;;6320415;22;20005;-88
2022/07/29 06:27:18;;;;;;;;;;;;;;;;;;6322378;22;19914;-88
2022/07/29 06:29:46;;;;;;;;;;;;;;;;;;6325270;22;19922;-88
2022/07/29 06:32:19;;;;;;;;;;;;;;;;;;6351437;22;20344;-88
2022/07/29 06:34:45;;;;;;;;;;;;;;;;;;6325096;22;20338;-86
2022/07/29 06:37:23;;;;;;;;;;;;;;;;;;6353083;22;19974;-88
2022/07/29 06:40:59;;;;;;;;;;;;;;;;;;6324638;22;19914;-87
2022/07/29 06:42:40;;;;;;;;;;;;;;;;;;6348282;22;19914;-87
2022/07/29 06:45:11;;;;;;;;;;;;;;;;;;6321850;22;19945;-87
2022/07/29 06:47:38;;;;;;;;;;;;;;;;;;6323603;22;19910;-87
2022/07/29 06:50:05;;;;;;;;;;;;;;;;;;6322048;22;19914;-87
2022/07/29 06:52:36;;;;;;;;;;;;;;;;;;6350602;22;20020;-87
2022/07/29 06:55:14;;;;;;;;;;;;;;;;;;6348895;22;19925;-88
2022/07/29 06:57:47;;;;;;;;;;;;;;;;;;6324181;22;19960;-88
2022/07/29 07:00:13;;;;;;;;;;;;;;;;;;6321120;22;20313;-87
2022/07/29 07:02:40;;;;;;;;;;;;;;;;;;6326435;22;20101;-87
2022/07/29 07:05:07;;;;;;;;;;;;;;;;;;6321723;22;20010;-88
2022/07/29 07:07:34;;;;;;;;;;;;;;;;;;6323476;22;19918;-88
2022/07/29 07:10:02;;;;;;;;;;;;;;;;;;6296418;22;19921;-88
2022/07/29 07:12:29;;;;;;;;;;;;;;;;;;6322717;22;19918;-88
2022/07/29 07:14:59;;;;;;;;;;;;;;;;;;6320379;22;19913;-88
2022/07/29 07:17:27;;;;;;;;;;;;;;;;;;6321806;22;19937;-88
2022/07/29 07:19:53;;;;;;;;;;;;;;;;;;6319231;22;20639;-89
2022/07/29 07:22:23;;;;;;;;;;;;;;;;;;6350230;22;19914;-88
2022/07/29 07:24:50;;;;;;;;;;;;;;;;;;6320610;22;20357;-87
2022/07/29 07:27:17;;;;;;;;;;;;;;;;;;6349019;22;20016;-87
2022/07/29 07:29:47;;;;;;;;;;;;;;;;;;6351311;22;20283;-88
2022/07/29 07:32:16;;;;;;;;;;;;;;;;;;6318353;22;19922;-88
2022/07/29 07:34:44;;;;;;;;;;;;;;;;;;6357289;22;19918;-87
2022/07/29 07:37:11;;;;;;;;;;;;;;;;;;6327968;22;19945;-88
2022/07/29 07:39:37;;;;;;;;;;;;;;;;;;6326298;22;19921;-88
2022/07/29 07:42:05;;;;;;;;;;;;;;;;;;6350379;22;19952;-89
2022/07/29 07:44:32;;;;;;;;;;;;;;;;;;6351893;22;19910;-88
2022/07/29 07:46:58;;;;;;;;;;;;;;;;;;6348482;22;20699;-88
2022/07/29 07:49:31;;;;;;;;;;;;;;;;;;6351044;22;19970;-88
2022/07/29 07:51:57;;;;;;;;;;;;;;;;;;6319224;22;19918;-88
2022/07/29 07:54:24;;;;;;;;;;;;;;;;;;6296664;22;19937;-88
2022/07/29 07:56:52;;;;;;;;;;;;;;;;;;6323380;22;19913;-88
2022/07/29 07:59:20;;;;;;;;;;;;;;;;;;6327139;22;19910;-89
2022/07/29 08:02:07;;;;;;;;;;;;;;;;;;6327512;22;20397;-88
2022/07/29 08:04:34;;;;;;;;;;;;;;;;;;6352773;22;19920;-88
2022/07/29 08:07:01;;;;;;;;;;;;;;;;;;6345193;22;19968;-88
2022/07/29 08:09:28;;;;;;;;;;;;;;;;;;6324360;22;19921;-89
2022/07/29 08:11:54;;;;;;;;;;;;;;;;;;6325336;22;19913;-89
2022/07/29 08:14:22;;;;;;;;;;;;;;;;;;6330636;22;19924;-89
2022/07/29 08:16:49;;;;;;;;;;;;;;;;;;6352796;22;19914;-89
2022/07/29 08:19:31;;;;;;;;;;;;;;;;;;6326638;22;19920;-88
2022/07/29 08:21:58;;;;;;;;;;;;;;;;;;6349453;22;19914;-88
2022/07/29 08:24:43;;;;;;;;;;;;;;;;;;6350772;22;19921;-88
2022/07/29 08:27:17;;;;;;;;;;;;;;;;;;6322762;22;19918;-88
2022/07/29 08:29:44;;;;;;;;;;;;;;;;;;6321667;22;20348;-88
2022/07/29 08:32:12;;;;;;;;;;;;;;;;;;6321490;22;20220;-88
2022/07/29 08:34:39;;;;;;;;;;;;;;;;;;6310517;22;19922;-88
2022/07/29 08:37:06;;;;;;;;;;;;;;;;;;6253010;22;19946;-86
2022/07/29 08:39:34;;;;;;;;;;;;;;;;;;6287605;22;19911;-85
2022/07/29 08:42:10;;;;;;;;;;;;;;;;;;6286287;22;19981;-86
2022/07/29 08:44:53;;;;;;;;;;;;;;;;;;6225012;23;20057;-86
2022/07/29 08:47:38;;;;;;;;;;;;;;;;;;6164752;23;19916;-86
2022/07/29 08:50:05;;;;;;;;;;;;;;;;;;6164100;23;19952;-85
2022/07/29 08:52:32;;;;;;;;;;;;;;;;;;6144192;23;19948;-86
2022/07/29 08:54:59;;;;;;;;;;;;;;;;;;6115076;23;19916;-86
2022/07/29 08:57:25;;;;;;;;;;;;;;;;;;6165480;23;19963;-86
2022/07/29 08:59:52;;;;;;;;;;;;;;;;;;6168275;23;19916;-86
2022/07/29 09:02:23;;;;;;;;;;;;;;;;;;6142938;23;19955;-86
2022/07/29 09:04:50;;;;;;;;;;;;;;;;;;6119220;23;19959;-86
2022/07/29 09:07:17;;;;;;;;;;;;;;;;;;6140554;23;19916;-86
2022/07/29 09:09:45;;;;;;;;;;;;;;;;;;6143964;23;19916;-86
2022/07/29 09:12:12;;;;;;;;;;;;;;;;;;6163913;23;19920;-86
2022/07/29 09:14:39;;;;;;;;;;;;;;;;;;6143353;23;20324;-84
2022/07/29 09:17:05;;;;;;;;;;;;;;;;;;6195172;23;19954;-84
2022/07/29 09:19:38;;;;;;;;;;;;;;;;;;6261248;22;19945;-84
2022/07/29 09:22:06;;;;;;;;;;;;;;;;;;6288182;22;19911;-86
2022/07/29 09:24:34;;;;;;;;;;;;;;;;;;6265531;22;19964;-86
2022/07/29 09:27:01;;;;;;;;;;;;;;;;;;6262513;22;20403;-85
2022/07/29 09:29:42;;;;;;;;;;;;;;;;;;6235099;22;19915;-86
2022/07/29 09:32:10;;;;;;;;;;;;;;;;;;6257435;22;20366;-86
2022/07/29 09:34:37;;;;;;;;;;;;;;;;;;6302232;22;19928;-86
2022/07/29 09:37:05;;;;;;;;;;;;;;;;;;6293079;22;20254;-86
2022/07/29 09:39:32;;;;;;;;;;;;;;;;;;6298292;22;20337;-85
2022/07/29 09:41:58;;;;;;;;;;;;;;;;;;6320428;22;19972;-86
2022/07/29 09:44:26;;;;;;;;;;;;;;;;;;6295949;22;19958;-86
2022/07/29 09:46:54;;;;;;;;;;;;;;;;;;6296219;22;20040;-86
2022/07/29 09:49:22;;;;;;;;;;;;;;;;;;6297310;22;19915;-86
2022/07/29 09:51:49;;;;;;;;;;;;;;;;;;6296817;22;19914;-86
2022/07/29 09:54:16;;;;;;;;;;;;;;;;;;6294384;22;19923;-85
2022/07/29 09:56:43;;;;;;;;;;;;;;;;;;6296722;22;19918;-86
2022/07/29 09:59:11;;;;;;;;;;;;;;;;;;6296262;22;19915;-86
2022/07/29 10:01:39;;;;;;;;;;;;;;;;;;6300464;22;20243;-86
2022/07/29 10:04:06;;;;;;;;;;;;;;;;;;6298329;22;19914;-86
2022/07/29 10:06:32;;;;;;;;;;;;;;;;;;6329232;22;20256;-86
2022/07/29 10:08:59;;;;;;;;;;;;;;;;;;6327157;22;19911;-86
2022/07/29 10:11:25;;;;;;;;;;;;;;;;;;6327129;22;19954;-86
2022/07/29 10:13:58;;;;;;;;;;;;;;;;;;6346005;22;19975;-86
2022/07/29 10:16:32;;;;;;;;;;;;;;;;;;6294875;22;19985;-86
2022/07/29 10:18:58;;;;;;;;;;;;;;;;;;6318756;22;19972;-86
2022/07/29 10:21:26;;;;;;;;;;;;;;;;;;6325847;22;19918;-85
2022/07/29 10:23:52;;;;;;;;;;;;;;;;;;6322484;22;19936;-86
2022/07/29 10:26:26;;;;;;;;;;;;;;;;;;6320446;22;19918;-85
2022/07/29 10:28:56;;;;;;;;;;;;;;;;;;6323708;22;19988;-86
2022/07/29 10:31:23;;;;;;;;;;;;;;;;;;6323935;22;19971;-86
2022/07/29 10:33:51;;;;;;;;;;;;;;;;;;6323351;22;19915;-84
2022/07/29 10:36:18;;;;;;;;;;;;;;;;;;6322349;22;19914;-84
2022/07/29 10:38:45;;;;;;;;;;;;;;;;;;6295795;22;20027;-84
2022/07/29 10:41:28;;;;;;;;;;;;;;;;;;6323261;22;19921;-84
2022/07/29 10:43:56;;;;;;;;;;;;;;;;;;6324181;22;19964;-84
2022/07/29 10:46:23;;;;;;;;;;;;;;;;;;6325667;22;19959;-84
2022/07/29 10:48:49;;;;;;;;;;;;;;;;;;6324548;22;20330;-84
2022/07/29 10:51:15;;;;;;;;;;;;;;;;;;6317210;22;19919;-84
2022/07/29 10:53:45;;;;;;;;;;;;;;;;;;6322438;22;19922;-84
2022/07/29 10:56:28;;;;;;;;;;;;;;;;;;6321052;22;20355;-85
2022/07/29 11:02:05;;;;;;;;;;;;;;;;;;6300547;22;19921;-84
2022/07/29 11:04:32;;;;;;;;;;;;;;;;;;6321300;22;19931;-84
2022/07/29 11:07:16;;;;;;;;;;;;;;;;;;6320413;22;19957;-84
2022/07/29 11:09:45;;;;;;;;;;;;;;;;;;6321939;22;19946;-84
2022/07/29 11:12:31;;;;;;;;;;;;;;;;;;6351662;22;19918;-84
2022/07/29 11:15:05;;;;;;;;;;;;;;;;;;6329800;22;19914;-84
2022/07/29 11:17:35;;;;;;;;;;;;;;;;;;6356788;22;19910;-84
2022/07/29 11:20:05;;;;;;;;;;;;;;;;;;6326934;22;19941;-84
2022/07/29 11:22:46;;;;;;;;;;;;;;;;;;6266388;22;19914;-84
2022/07/29 11:25:13;;;;;;;;;;;;;;;;;;6286746;22;19958;-84
2022/07/29 11:27:41;;;;;;;;;;;;;;;;;;6241090;22;20335;-84
2022/07/29 11:30:09;;;;;;;;;;;;;;;;;;6237381;22;19915;-84
2022/07/29 11:32:37;;;;;;;;;;;;;;;;;;6263546;22;19923;-84
2022/07/29 11:35:08;;;;;;;;;;;;;;;;;;6261730;22;20492;-84
2022/07/29 11:37:35;;;;;;;;;;;;;;;;;;6291393;22;19941;-84
2022/07/29 11:40:02;;;;;;;;;;;;;;;;;;6290229;22;19982;-84
2022/07/29 11:42:30;;;;;;;;;;;;;;;;;;6241460;22;19962;-84
2022/07/29 11:45:15;;;;;;;;;;;;;;;;;;6238787;22;19914;-84
2022/07/29 11:47:42;;;;;;;;;;;;;;;;;;6268081;22;20740;-84
2022/07/29 11:50:10;;;;;;;;;;;;;;;;;;6263685;22;19910;-84
2022/07/29 11:52:45;;;;;;;;;;;;;;;;;;6243328;22;20282;-84
2022/07/29 11:55:12;;;;;;;;;;;;;;;;;;6356154;22;20319;-84
2022/07/29 11:57:52;;;;;;;;;;;;;;;;;;6358608;22;20250;-84
2022/07/29 12:00:23;;;;;;;;;;;;;;;;;;6332318;22;19932;-84
2022/07/29 12:02:50;;;;;;;;;;;;;;;;;;6331493;22;19921;-84
2022/07/29 12:05:30;;;;;;;;;;;;;;;;;;;;;
2022/07/29 12:08:04;;;;;;;;;;;;;;;;;;6326907;22;20179;-83
2022/07/29 12:10:32;;;;;;;;;;;;;;;;;;6352678;22;19917;-84
2022/07/29 12:13:01;;;;;;;;;;;;;;;;;;6316602;22;19994;-84
2022/07/29 12:15:28;;;;;;;;;;;;;;;;;;6317137;22;19918;-84
2022/07/29 12:17:54;;;;;;;;;;;;;;;;;;6291175;22;20036;-84
2022/07/29 12:20:22;;;;;;;;;;;;;;;;;;6319164;22;19949;-86
2022/07/29 12:23:11;;;;;;;;;;;;;;;;;;6316294;22;19957;-86
2022/07/29 12:25:42;;;;;;;;;;;;;;;;;;6292919;22;20304;-86
2022/07/29 12:28:09;;;;;;;;;;;;;;;;;;6293631;22;19992;-86
2022/07/29 12:30:38;;;;;;;;;;;;;;;;;;6295525;22;19914;-86
2022/07/29 12:33:14;;;;;;;;;;;;;;;;;;6292135;22;19918;-86
2022/07/29 12:35:42;;;;;;;;;;;;;;;;;;6292318;22;20433;-86
2022/07/29 12:55:02;;;;;;;;;;;;;;;;;;6295390;22;19913;-84
2022/07/29 12:57:28;;;;;;;;;;;;;;;;;;6271584;22;19957;-85
2022/07/29 13:00:10;;;;;;;;;;;;;;;;;;6227306;23;19919;-84
2022/07/29 13:02:37;;;;;;;;;;;;;;;;;;6202876;23;20248;-85
2022/07/29 13:05:16;;;;;;;;;;;;;;;;;;6227094;23;20012;-85
2022/07/29 13:07:44;;;;;;;;;;;;;;;;;;6230380;23;19915;-85
2022/07/29 13:10:11;;;;;;;;;;;;;;;;;;6230749;23;20420;-85
2022/07/29 13:12:38;;;;;;;;;;;;;;;;;;6228336;23;19916;-85
2022/07/29 13:15:04;;;;;;;;;;;;;;;;;;6223427;23;20380;-85
2022/07/29 13:17:30;;;;;;;;;;;;;;;;;;6222544;23;19997;-84
2022/07/29 13:19:56;;;;;;;;;;;;;;;;;;6221633;23;19919;-85
2022/07/29 13:22:23;;;;;;;;;;;;;;;;;;6224840;23;19966;-85
2022/07/29 13:25:06;;;;;;;;;;;;;;;;;;6222037;23;19915;-85
2022/07/29 13:27:34;;;;;;;;;;;;;;;;;;6200453;23;19949;-84
2022/07/29 13:30:01;;;;;;;;;;;;;;;;;;6203775;22;19963;-85
2022/07/29 13:32:28;;;;;;;;;;;;;;;;;;6269177;22;20319;-85
2022/07/29 13:34:55;;;;;;;;;;;;;;;;;;6266350;22;19973;-85
2022/07/29 13:37:44;;;;;;;;;;;;;;;;;;6320774;22;19914;-85
2022/07/29 13:40:10;;;;;;;;;;;;;;;;;;6266424;22;19925;-82
2022/07/29 13:42:42;;;;;;;;;;;;;;;;;;6318841;22;20648;-84
2022/07/29 13:45:09;;;;;;;;;;;;;;;;;;6315590;22;19941;-84
2022/07/29 13:47:36;;;;;;;;;;;;;;;;;;6316771;22;19918;-84
2022/07/29 13:50:16;;;;;;;;;;;;;;;;;;6316427;22;20357;-83
2022/07/29 13:52:43;;;;;;;;;;;;;;;;;;6319028;22;19921;-84
2022/07/29 13:55:13;;;;;;;;;;;;;;;;;;6318689;22;20386;-84
2022/07/29 13:57:41;;;;;;;;;;;;;;;;;;6321908;22;19918;-84
2022/07/29 14:00:10;;;;;;;;;;;;;;;;;;6318167;22;19915;-85
2022/07/29 14:02:45;;;;;;;;;;;;;;;;;;6322363;22;19936;-85
2022/07/29 14:05:13;;;;;;;;;;;;;;;;;;6318495;22;19949;-85
2022/07/29 14:07:40;;;;;;;;;;;;;;;;;;6319579;22;19918;-85
2022/07/29 14:10:07;;;;;;;;;;;;;;;;;;6293984;22;20254;-85
2022/07/29 14:12:34;;;;;;;;;;;;;;;;;;6325096;22;19915;-85
2022/07/29 14:15:01;;;;;;;;;;;;;;;;;;6307266;22;19922;-85
2022/07/29 14:17:27;;;;;;;;;;;;;;;;;;6312090;22;19945;-85
2022/07/29 14:20:05;;;;;;;;;;;;;;;;;;6309101;22;19922;-85
2022/07/29 14:22:33;;;;;;;;;;;;;;;;;;6318368;22;19914;-85
2022/07/29 14:24:59;;;;;;;;;;;;;;;;;;6313760;22;20372;-84
2022/07/29 14:27:26;;;;;;;;;;;;;;;;;;6292530;22;19914;-84
2022/07/29 14:29:53;;;;;;;;;;;;;;;;;;6290936;22;19915;-85
2022/07/29 14:32:39;;;;;;;;;;;;;;;;;;6320825;22;20545;-84
2022/07/29 14:35:16;;;;;;;;;;;;;;;;;;6310187;22;19949;-84
2022/07/29 14:37:50;;;;;;;;;;;;;;;;;;6317805;22;20334;-84
2022/07/29 14:40:36;;;;;;;;;;;;;;;;;;6293640;22;19913;-85
2022/07/29 14:43:03;;;;;;;;;;;;;;;;;;6314877;22;19920;-85
2022/07/29 14:45:31;;;;;;;;;;;;;;;;;;6317739;22;19918;-85
2022/07/29 14:48:01;;;;;;;;;;;;;;;;;;6321530;22;19934;-85
2022/07/29 14:50:46;;;;;;;;;;;;;;;;;;6323471;22;19914;-84
2022/07/29 14:53:17;;;;;;;;;;;;;;;;;;6324214;22;19921;-85
2022/07/29 14:55:44;;;;;;;;;;;;;;;;;;6322141;22;19947;-85
2022/07/29 14:58:12;;;;;;;;;;;;;;;;;;6319483;22;20025;-85
2022/07/29 15:00:39;;;;;;;;;;;;;;;;;;6295460;22;19915;-85
2022/07/29 15:03:09;;;;;;;;;;;;;;;;;;6320218;22;19962;-85
2022/07/29 15:05:36;;;;;;;;;;;;;;;;;;6323613;22;19915;-85
2022/07/29 15:08:03;;;;;;;;;;;;;;;;;;6318877;22;19914;-84
2022/07/29 15:10:40;;;;;;;;;;;;;;;;;;6323217;22;19914;-85
2022/07/29 15:13:07;;;;;;;;;;;;;;;;;;6319411;22;19918;-84
2022/07/29 15:15:36;;;;;;;;;;;;;;;;;;6321534;22;19915;-85
2022/07/29 15:18:02;;;;;;;;;;;;;;;;;;6317151;22;19956;-88
2022/07/29 15:20:50;;;;;;;;;;;;;;;;;;6299671;22;19950;-85
2022/07/29 15:23:17;;;;;;;;;;;;;;;;;;6319738;22;20246;-84
2022/07/29 15:25:44;;;;;;;;;;;;;;;;;;6322059;22;19914;-84
2022/07/29 15:28:11;;;;;;;;;;;;;;;;;;6324801;22;20351;-83
2022/07/29 15:30:40;;;;;;;;;;;;;;;;;;6326511;22;19918;-83
2022/07/29 15:33:09;;;;;;;;;;;;;;;;;;6322678;22;20487;-84
2022/07/29 15:35:38;;;;;;;;;;;;;;;;;;6324273;22;20032;-84
2022/07/29 15:38:05;;;;;;;;;;;;;;;;;;6322182;22;19953;-84
2022/07/29 15:40:35;;;;;;;;;;;;;;;;;;6327297;22;19988;-84
2022/07/29 15:43:12;;;;;;;;;;;;;;;;;;6321705;22;20330;-84
2022/07/29 15:45:38;;;;;;;;;;;;;;;;;;6328174;22;19989;-83
2022/07/29 15:48:06;;;;;;;;;;;;;;;;;;6297895;22;19957;-83
2022/07/29 15:50:32;;;;;;;;;;;;;;;;;;6300693;22;20285;-83
2022/07/29 15:52:59;;;;;;;;;;;;;;;;;;6233993;22;19951;-83
2022/07/29 15:55:46;;;;;;;;;;;;;;;;;;6264989;22;20350;-83
2022/07/29 15:58:13;;;;;;;;;;;;;;;;;;6235381;22;19914;-83
2022/07/29 16:00:40;;;;;;;;;;;;;;;;;;6288671;22;19981;-83
2022/07/29 16:03:08;;;;;;;;;;;;;;;;;;6261299;22;19915;-83
2022/07/29 16:05:38;;;;;;;;;;;;;;;;;;6263279;22;19915;-83
2022/07/29 16:08:04;;;;;;;;;;;;;;;;;;6262449;22;19911;-83
2022/07/29 16:10:31;;;;;;;;;;;;;;;;;;6265233;22;19919;-83
2022/07/29 16:13:14;;;;;;;;;;;;;;;;;;6261606;22;19926;-83
2022/07/29 16:15:41;;;;;;;;;;;;;;;;;;6262441;22;19951;-83
2022/07/29 16:18:12;;;;;;;;;;;;;;;;;;6259730;22;19979;-82
2022/07/29 16:21:03;;;;;;;;;;;;;;;;;;6260892;22;19915;-83
2022/07/29 16:23:31;;;;;;;;;;;;;;;;;;6259559;22;20048;-83
2022/07/29 16:26:16;;;;;;;;;;;;;;;;;;6254012;22;19961;-83
2022/07/29 16:28:43;;;;;;;;;;;;;;;;;;6255923;22;19911;-83
2022/07/29 16:31:12;;;;;;;;;;;;;;;;;;6254209;22;19919;-84
2022/07/29 16:33:42;;;;;;;;;;;;;;;;;;6256284;22;19919;-83
2022/07/29 16:36:10;;;;;;;;;;;;;;;;;;6254560;22;19915;-83
2022/07/29 16:38:37;;;;;;;;;;;;;;;;;;6255789;22;20414;-83
2022/07/29 16:41:04;;;;;;;;;;;;;;;;;;6253811;22;20397;-83
2022/07/29 16:43:37;;;;;;;;;;;;;;;;;;6232385;22;20373;-83
2022/07/29 16:46:03;;;;;;;;;;;;;;;;;;6256730;22;20720;-83
2022/07/29 16:48:33;;;;;;;;;;;;;;;;;;6261150;22;19964;-84
2022/07/29 16:51:00;;;;;;;;;;;;;;;;;;6237454;22;19957;-83
2022/07/29 16:53:33;;;;;;;;;;;;;;;;;;6262210;22;20017;-82
2022/07/29 16:56:02;;;;;;;;;;;;;;;;;;6234761;22;19915;-83
2022/07/29 16:58:30;;;;;;;;;;;;;;;;;;6261415;22;20241;-83
2022/07/29 17:01:11;;;;;;;;;;;;;;;;;;6286928;22;20754;-83
2022/07/29 17:04:21;;;;;;;;;;;;;;;;;;6290180;22;19922;-83
2022/07/29 17:06:33;;;;;;;;;;;;;;;;;;6286297;22;19969;-83
2022/07/29 17:09:01;;;;;;;;;;;;;;;;;;6260361;22;19967;-83
2022/07/29 17:11:29;;;;;;;;;;;;;;;;;;6294224;22;19922;-83
2022/07/29 17:14:09;;;;;;;;;;;;;;;;;;6286101;22;19919;-83
2022/07/29 17:16:39;;;;;;;;;;;;;;;;;;6290945;22;20398;-83
2022/07/29 17:19:06;;;;;;;;;;;;;;;;;;6259608;22;19963;-83
2022/07/29 17:21:34;;;;;;;;;;;;;;;;;;6263850;22;19921;-83
2022/07/29 17:24:04;;;;;;;;;;;;;;;;;;6288668;22;19915;-84
2022/07/29 17:26:32;;;;;;;;;;;;;;;;;;6289954;22;19910;-83
2022/07/29 17:28:58;;;;;;;;;;;;;;;;;;6287945;22;19910;-83
2022/07/29 17:31:27;;;;;;;;;;;;;;;;;;6288270;22;19993;-83
2022/07/29 17:33:54;;;;;;;;;;;;;;;;;;6285539;22;20109;-83
2022/07/29 17:36:26;;;;;;;;;;;;;;;;;;6286415;22;20312;-83
2022/07/29 17:38:56;;;;;;;;;;;;;;;;;;6283456;22;20232;-83